Time;durP1;ratioP1;P1;durP2;ratioP2;P2;SDS_P1;SDS_P2;PMS_P1;PMS_P2;Temp;Humidity;BMP_temperature;BMP_pressure;BME280_temperature;BME280_humidity;BME280_pressure;Samples;Min_cycle;Max_cycle;Signal;HPM_P1;HPM_P2
2022/11/21 05:32:55;;;;;;;;;6.25;6.25;;;;;9.13;77.67;100346.06;4956976;28;45498;-73
2022/11/21 05:35:21;;;;;;;;;5.25;2.00;;;;;9.11;77.48;100354.16;4957192;28;45171;-73
2022/11/21 05:37:46;;;;;;;;;8.25;5.50;;;;;8.98;77.52;100328.94;4956569;28;45183;-73
2022/11/21 05:40:13;;;;;;;;;8.00;6.00;;;;;9.05;77.81;100333.06;4956916;28;45436;-74
2022/11/21 05:45:25;;;;;;;;;6.75;4.75;;;;;9.03;77.58;100326.91;4956897;28;45290;-73
2022/11/21 05:47:50;;;;;;;;;9.00;4.00;;;;;9.07;77.64;100312.47;4956790;28;45499;-71
2022/11/21 05:50:15;;;;;;;;;7.25;4.00;;;;;9.09;77.43;100310.59;4956671;28;45331;-73
2022/11/21 05:52:41;;;;;;;;;5.00;3.75;;;;;9.12;77.82;100307.75;4956462;28;45402;-74
2022/11/21 05:55:07;;;;;;;;;12.25;8.00;;;;;9.15;77.33;100302.28;4956232;28;45528;-73
2022/11/21 05:57:32;;;;;;;;;6.75;4.00;;;;;9.20;77.98;100294.88;4956530;28;45409;-72
2022/11/21 05:59:57;;;;;;;;;6.75;6.75;;;;;9.07;77.30;100264.34;4956505;28;45525;-74
2022/11/21 06:05:06;;;;;;;;;6.50;6.50;;;;;9.31;77.15;100286.38;4956527;28;45386;-73
2022/11/21 06:07:32;;;;;;;;;10.00;6.50;;;;;9.32;77.11;100280.94;4956380;28;45314;-73
2022/11/21 06:09:57;;;;;;;;;10.00;8.50;;;;;9.30;76.86;100261.41;4961884;28;45306;-73
2022/11/21 06:12:22;;;;;;;;;12.50;5.25;;;;;9.27;76.98;100242.00;4950975;28;45501;-73
2022/11/21 06:14:48;;;;;;;;;4.25;4.25;;;;;9.37;76.55;100237.91;4939264;28;45355;-73
2022/11/21 06:17:13;;;;;;;;;7.25;4.00;;;;;9.31;76.52;100225.72;4938886;28;47351;-74
2022/11/21 06:19:38;;;;;;;;;13.25;5.75;;;;;9.33;76.84;100229.19;4938963;28;46920;-74
2022/11/21 06:22:04;;;;;;;;;6.75;5.25;;;;;9.31;76.47;100236.41;4952202;28;45373;-73
2022/11/21 06:24:29;;;;;;;;;8.25;3.75;;;;;9.30;76.99;100229.31;4936487;28;45248;-71
2022/11/21 06:26:54;;;;;;;;;5.00;1.00;;;;;9.30;76.88;100228.44;4936753;28;52597;-71
2022/11/21 06:29:21;;;;;;;;;11.00;7.00;;;;;9.26;77.12;100222.41;4951693;28;45398;-74
2022/11/21 06:31:46;;;;;;;;;6.00;6.00;;;;;9.20;76.97;100206.63;4948056;28;45335;-74
2022/11/21 06:34:12;;;;;;;;;13.75;7.75;;;;;9.27;76.87;100220.59;4955737;28;45393;-71
2022/11/21 06:36:37;;;;;;;;;4.50;4.50;;;;;9.25;77.29;100222.47;4956138;28;45611;-72
2022/11/21 06:39:03;;;;;;;;;6.75;6.75;;;;;9.16;77.37;100221.09;4955693;28;45357;-75
2022/11/21 06:41:29;;;;;;;;;7.50;7.50;;;;;9.14;77.67;100222.13;4956430;28;45296;-71
2022/11/21 06:44:00;;;;;;;;;10.50;6.00;;;;;9.06;77.90;100210.00;4952390;28;45508;-71
2022/11/21 06:46:26;;;;;;;;;14.00;8.00;;;;;9.04;77.61;100205.66;4975473;28;45424;-70
2022/11/21 06:48:52;;;;;;;;;7.75;7.75;;;;;8.95;78.47;100193.59;4975310;28;45450;-78
2022/11/21 06:51:23;;;;;;;;;9.75;8.00;;;;;8.98;78.09;100204.16;4975792;28;45352;-72
2022/11/21 06:53:56;;;;;;;;;11.25;7.25;;;;;8.95;78.22;100201.59;4974981;28;45610;-72
2022/11/21 06:56:26;;;;;;;;;7.25;7.25;;;;;8.86;78.54;100171.78;4975207;28;46048;-70
2022/11/21 06:58:52;;;;;;;;;13.00;9.00;;;;;8.87;78.72;100177.06;4975201;28;45544;-69
2022/11/21 07:01:17;;;;;;;;;8.50;8.00;;;;;8.90;78.24;100155.53;4975329;28;45424;-72
2022/11/21 07:03:43;;;;;;;;;11.50;8.50;;;;;9.00;78.43;100139.91;4974828;28;45306;-71
2022/11/21 07:06:08;;;;;;;;;9.00;7.50;;;;;8.98;77.99;100129.28;4974682;28;45350;-71
2022/11/21 07:08:34;;;;;;;;;12.75;10.50;;;;;9.02;77.73;100120.16;4974298;28;45337;-71
2022/11/21 07:11:02;;;;;;;;;13.25;8.75;;;;;9.07;78.00;100115.47;4975496;28;45371;-73
2022/11/21 07:13:28;;;;;;;;;14.25;12.75;;;;;9.13;77.54;100114.28;4974907;28;45329;-71
2022/11/21 07:15:55;;;;;;;;;13.00;11.50;;;;;9.13;77.23;100102.72;4974774;28;46218;-71
2022/11/21 07:18:21;;;;;;;;;13.75;12.25;;;;;9.20;77.22;100104.13;4974558;28;45419;-72
2022/11/21 07:20:47;;;;;;;;;16.50;11.00;;;;;9.19;77.30;100095.25;4974990;28;45406;-72
2022/11/21 07:23:13;;;;;;;;;11.75;10.25;;;;;9.23;76.98;100090.63;4974493;28;45830;-72
2022/11/21 07:25:39;;;;;;;;;6.50;4.25;;;;;9.26;76.40;100086.00;4974979;28;46064;-71
2022/11/21 07:28:06;;;;;;;;;16.25;13.00;;;;;9.20;76.38;100078.25;4974687;28;45432;-72
2022/11/21 07:30:33;;;;;;;;;15.00;13.25;;;;;9.22;75.94;100071.03;4974736;28;45422;-70
2022/11/21 07:33:01;;;;;;;;;13.50;11.25;;;;;9.22;75.55;100067.50;4973208;28;45463;-71
2022/11/21 07:35:27;;;;;;;;;10.00;10.00;;;;;9.14;75.85;100050.97;4973106;28;46397;-71
2022/11/21 07:37:53;;;;;;;;;18.25;12.75;;;;;9.11;75.65;100052.84;4972977;28;45299;-70
2022/11/21 07:40:19;;;;;;;;;9.50;9.50;;;;;9.09;75.81;100056.56;4972104;28;45192;-72
2022/11/21 07:42:47;;;;;;;;;12.25;9.75;;;;;9.07;75.12;100053.09;4965854;28;45357;-71
2022/11/21 07:45:13;;;;;;;;;11.75;9.50;;;;;9.02;75.42;100056.00;4964212;28;46346;-73
2022/11/21 07:47:39;;;;;;;;;16.25;11.00;;;;;8.91;75.50;100041.44;4967585;28;45472;-73
2022/11/21 07:50:05;;;;;;;;;15.00;13.75;;;;;8.91;75.47;100045.00;4964823;28;45468;-69
2022/11/21 07:52:31;;;;;;;;;17.25;12.50;;;;;8.91;75.98;100028.94;4966943;28;45264;-70
2022/11/21 07:54:57;;;;;;;;;20.50;15.00;;;;;8.93;75.08;100018.19;4959002;28;46030;-69
2022/11/21 07:57:23;;;;;;;;;14.25;13.75;;;;;8.91;75.91;100017.41;4971085;28;45314;-69
2022/11/21 07:59:49;;;;;;;;;18.50;13.75;;;;;8.82;75.69;100005.34;4972500;28;45377;-71
2022/11/21 08:02:23;;;;;;;;;11.75;11.75;;;;;8.81;75.88;99994.75;4972242;28;45620;-69
2022/11/21 08:04:48;;;;;;;;;14.00;14.00;;;;;8.76;75.76;99978.09;4959652;28;45442;-70
2022/11/21 08:07:15;;;;;;;;;16.25;15.00;;;;;8.69;76.14;99975.69;4959543;28;45351;-71
2022/11/21 08:09:40;;;;;;;;;26.25;23.00;;;;;8.70;76.19;99973.91;4973949;28;45357;-69
2022/11/21 08:12:06;;;;;;;;;22.00;16.50;;;;;8.70;76.57;99988.13;4973557;28;45416;-71
2022/11/21 08:14:33;;;;;;;;;17.50;14.75;;;;;8.59;76.22;99979.78;4973055;28;46613;-70
2022/11/21 08:16:58;;;;;;;;;20.25;20.25;;;;;8.53;76.31;99961.38;4953709;28;45440;-70
2022/11/21 08:19:23;;;;;;;;;30.25;21.00;;;;;8.59;76.52;99977.09;4966132;28;45559;-70
2022/11/21 08:21:49;;;;;;;;;20.25;17.75;;;;;8.62;76.85;99976.97;4960773;28;45600;-71
2022/11/21 08:24:16;;;;;;;;;25.75;15.25;;;;;8.62;77.05;99973.41;4975779;28;45522;-70
2022/11/21 08:26:42;;;;;;;;;25.25;18.50;;;;;8.62;77.05;99966.25;4975256;28;45447;-71
2022/11/21 08:29:09;;;;;;;;;21.00;18.75;;;;;8.70;77.16;99981.91;4975452;28;45362;-71
2022/11/21 08:31:35;;;;;;;;;17.00;14.50;;;;;8.59;77.62;99979.78;4935207;28;1180347;-68
2022/11/21 08:34:01;;;;;;;;;17.50;15.50;;;;;8.67;77.19;99982.09;4976862;28;45413;-69
2022/11/21 08:36:26;;;;;;;;;24.50;18.75;;;;;8.77;77.45;99986.00;4977432;28;45460;-70
2022/11/21 08:38:51;;;;;;;;;14.75;14.25;;;;;8.77;76.71;99977.97;4976786;28;45362;-70
2022/11/21 08:44:01;;;;;;;;;26.25;17.75;;;;;8.77;77.29;99986.00;4976556;28;45422;-69
2022/11/21 08:46:27;;;;;;;;;16.25;14.50;;;;;8.78;76.97;99984.19;4977021;28;45377;-70
2022/11/21 08:48:54;;;;;;;;;13.50;9.75;;;;;8.75;77.40;99977.22;4976217;28;45917;-70
2022/11/21 08:51:19;;;;;;;;;15.75;14.25;;;;;8.71;77.59;99970.28;4975599;28;45594;-69
2022/11/21 08:53:45;;;;;;;;;15.75;13.50;;;;;8.80;77.61;99963.59;4960088;28;45386;-70
2022/11/21 08:56:10;;;;;;;;;19.00;15.00;;;;;8.83;77.21;99934.06;4971683;28;45404;-70
2022/11/21 08:58:35;;;;;;;;;14.00;12.25;;;;;8.90;77.09;99933.66;4963479;28;45243;-69
2022/11/21 09:01:01;;;;;;;;;17.00;16.00;;;;;8.91;77.08;99906.00;4976587;28;45568;-69
2022/11/21 09:03:26;;;;;;;;;15.50;15.50;;;;;8.92;76.60;99896.16;4972125;28;46719;-69
2022/11/21 09:05:51;;;;;;;;;13.50;10.50;;;;;9.06;76.91;99905.19;4956719;28;45216;-71
2022/11/21 09:08:17;;;;;;;;;14.75;13.75;;;;;8.99;76.47;99908.25;4957100;28;45342;-71
2022/11/21 09:10:42;;;;;;;;;2.00;0.00;;;;;9.03;76.61;99915.16;4973189;28;46083;-70
2022/11/21 09:13:07;;;;;;;;;11.25;10.00;;;;;8.96;76.74;99903.06;4957082;28;47324;-71
2022/11/21 09:18:16;;;;;;;;;13.00;13.00;;;;;8.95;77.32;99906.69;4969990;28;45390;-70
2022/11/21 09:20:43;;;;;;;;;14.25;11.25;;;;;8.84;77.38;99888.56;4968931;28;45462;-71
2022/11/21 09:23:14;;;;;;;;;14.25;11.00;;;;;8.91;77.17;99876.59;4971404;28;45354;-70
2022/11/21 09:25:40;;;;;;;;;15.75;13.25;;;;;8.94;77.05;99867.53;4968376;28;45420;-69
2022/11/21 09:28:07;;;;;;;;;13.00;12.25;;;;;8.93;77.04;99865.81;4976265;28;45550;-70
2022/11/21 09:30:33;;;;;;;;;15.00;13.75;;;;;8.93;77.21;99860.47;4974346;28;45807;-72
2022/11/21 09:33:07;;;;;;;;;11.75;10.00;;;;;8.93;77.34;99857.81;4970506;28;45397;-70
2022/11/21 09:35:33;;;;;;;;;18.50;16.00;;;;;8.77;77.34;99814.09;4959014;28;45375;-71
2022/11/21 09:37:58;;;;;;;;;12.50;9.00;;;;;8.99;77.17;99838.75;4975954;28;45391;-72
2022/11/21 09:40:24;;;;;;;;;13.00;13.00;;;;;8.99;76.92;99841.44;4975518;28;45414;-71
2022/11/21 09:43:17;;;;;;;;;13.25;13.25;;;;;8.95;76.95;99821.13;4976561;28;46044;-70
2022/11/21 09:45:48;;;;;;;;;12.00;12.00;;;;;8.91;77.28;99798.22;4976105;28;45413;-71
2022/11/21 09:48:23;;;;;;;;;13.75;11.75;;;;;8.97;77.31;99782.69;4976783;28;45313;-70
2022/11/21 09:50:53;;;;;;;;;11.75;11.50;;;;;8.95;77.34;99776.56;4975677;28;45489;-70
2022/11/21 09:53:32;;;;;;;;;12.25;8.75;;;;;8.95;76.90;99767.66;4975542;28;46167;-70
2022/11/21 09:56:01;;;;;;;;;12.75;10.75;;;;;8.92;77.29;99763.38;4975973;28;45355;-71
2022/11/21 09:58:31;;;;;;;;;13.25;11.75;;;;;8.92;77.60;99771.41;4974984;28;45616;-70
2022/11/21 10:00:57;;;;;;;;;18.25;10.50;;;;;8.89;77.55;99765.34;4975468;28;45298;-69
2022/11/21 10:03:27;;;;;;;;;10.00;8.25;;;;;8.86;78.02;99738.78;4957881;28;47630;-69
2022/11/21 10:05:58;;;;;;;;;8.25;8.25;;;;;8.97;77.44;99736.38;4975906;28;45322;-70
2022/11/21 10:08:52;;;;;;;;;7.25;6.75;;;;;8.98;77.06;99722.94;4975492;28;45501;-69
2022/11/21 10:14:40;;;;;;;;;14.00;8.25;;;;;9.13;76.52;99717.66;4974100;28;45781;-72
2022/11/21 10:17:20;;;;;;;;;14.25;9.75;;;;;9.12;77.00;99698.09;4975127;28;45517;-70
2022/11/21 10:19:52;;;;;;;;;17.50;10.00;;;;;9.00;76.71;99682.75;4970474;28;45439;-70
2022/11/21 10:22:29;;;;;;;;;13.00;10.00;;;;;9.16;76.42;99699.66;4966179;28;45575;-73
2022/11/21 10:25:02;;;;;;;;;11.00;9.00;;;;;9.19;76.08;99690.56;4974655;28;46466;-71
2022/11/21 10:27:40;;;;;;;;;9.75;8.75;;;;;9.13;76.55;99669.53;4954423;28;45444;-70
2022/11/21 10:30:14;;;;;;;;;13.25;12.00;;;;;9.18;76.70;99660.34;4963928;28;45443;-70
2022/11/21 10:32:43;;;;;;;;;8.50;8.00;;;;;9.28;76.15;99657.97;4972379;28;45919;-71
2022/11/21 10:35:22;;;;;;;;;12.75;9.75;;;;;9.37;75.93;99649.41;4955234;28;46292;-70
2022/11/21 10:38:00;;;;;;;;;13.25;7.50;;;;;9.44;75.53;99659.66;4954901;28;45468;-71
2022/11/21 10:40:37;;;;;;;;;7.00;7.00;;;;;9.48;74.88;99655.88;4975209;28;45357;-71
2022/11/21 10:46:11;;;;;;;;;6.75;4.00;;;;;9.26;75.17;99593.88;4973526;28;45488;-74
2022/11/21 10:48:36;;;;;;;;;8.00;6.75;;;;;9.42;74.45;99605.41;4974043;28;45318;-73
2022/11/21 10:51:34;;;;;;;;;10.50;8.75;;;;;9.38;74.96;99611.00;4974881;28;45432;-72
2022/11/21 10:56:49;;;;;;;;;2.00;2.00;;;;;9.45;75.06;99602.53;4974523;28;45348;-71
2022/11/21 10:59:33;;;;;;;;;9.00;8.00;;;;;9.44;75.24;99595.44;4974855;28;45436;-75
2022/11/21 11:02:01;;;;;;;;;7.75;6.00;;;;;9.50;75.25;99588.91;4974501;28;45501;-71
2022/11/21 11:04:31;;;;;;;;;7.50;5.25;;;;;9.48;74.38;99580.09;4963801;28;45332;-71
2022/11/21 11:06:58;;;;;;;;;7.50;5.00;;;;;9.57;74.95;99578.69;4954833;28;46130;-73
2022/11/21 11:09:32;;;;;;;;;7.00;7.00;;;;;9.59;74.77;99584.81;4955236;28;45303;-70
2022/11/21 11:15:22;;;;;;;;;9.75;5.25;;;;;9.65;74.26;99573.72;4947573;28;45592;-74
2022/11/21 11:17:52;;;;;;;;;6.75;6.75;;;;;9.66;74.79;99568.28;4955220;28;46652;-72
2022/11/21 11:20:29;;;;;;;;;7.00;7.00;;;;;9.65;74.41;99563.03;4964487;28;45507;-74
2022/11/21 11:22:55;;;;;;;;;7.00;7.00;;;;;9.63;74.58;99548.88;4973691;28;45500;-68
2022/11/21 11:25:21;;;;;;;;;9.00;7.00;;;;;9.64;75.20;99537.22;4974371;28;45187;-75
2022/11/21 11:27:49;;;;;;;;;6.75;6.75;;;;;9.66;74.73;99527.28;4976658;28;45687;-76
2022/11/21 11:30:17;;;;;;;;;7.00;7.00;;;;;9.74;74.70;99525.84;4965723;28;45395;-73
2022/11/21 11:32:42;;;;;;;;;8.50;6.00;;;;;9.81;74.05;99526.31;4970375;28;45681;-75
2022/11/21 11:35:16;;;;;;;;;5.50;4.25;;;;;9.71;74.12;99482.34;4978828;28;45394;-75
2022/11/21 11:37:49;;;;;;;;;6.75;4.25;;;;;9.82;73.51;99498.59;4976552;28;46092;-74
2022/11/21 11:40:40;;;;;;;;;8.50;7.00;;;;;9.86;73.66;99490.31;4974699;28;45452;-75
2022/11/21 11:50:13;;;;;;;;;10.25;6.50;;;;;9.91;74.07;99449.84;4959771;28;45499;-71
2022/11/21 11:53:03;;;;;;;;;8.25;4.75;;;;;9.90;73.73;99421.34;4956563;28;45779;-72
2022/11/21 11:55:40;;;;;;;;;7.00;6.75;;;;;9.97;73.63;99403.94;4977694;28;45317;-77
2022/11/21 11:58:19;;;;;;;;;6.25;4.25;;;;;9.88;73.59;99351.00;4977704;28;45395;-72
2022/11/21 12:00:50;;;;;;;;;4.75;3.00;;;;;10.05;73.39;99357.91;4977501;28;45477;-73
2022/11/21 12:03:22;;;;;;;;;5.25;4.75;;;;;10.05;73.15;99350.75;4977619;28;45444;-71
2022/11/21 12:06:01;;;;;;;;;10.00;7.00;;;;;9.97;73.18;99318.25;4977950;28;45471;-72
2022/11/21 12:08:36;;;;;;;;;7.50;6.00;;;;;10.15;72.76;99343.81;4977224;28;45542;-71
2022/11/21 12:13:56;;;;;;;;;6.00;5.75;;;;;10.18;72.11;99340.13;4965770;28;45478;-71
2022/11/21 12:16:25;;;;;;;;;7.50;4.50;;;;;10.14;72.68;99312.66;4977226;28;45440;-72
2022/11/21 12:19:01;;;;;;;;;4.50;4.50;;;;;10.14;72.14;99293.03;4977658;28;45418;-71
2022/11/21 12:21:27;;;;;;;;;3.25;3.25;;;;;10.25;71.70;99301.25;4977096;28;45367;-70
2022/11/21 12:24:02;;;;;;;;;4.00;3.00;;;;;10.31;72.10;99299.97;4977091;28;45348;-72
2022/11/21 12:26:35;;;;;;;;;6.75;3.25;;;;;10.30;71.90;99301.78;4977011;28;45299;-71
2022/11/21 12:29:29;;;;;;;;;6.50;4.00;;;;;10.29;72.27;99276.00;4977615;28;45346;-70
2022/11/21 12:32:19;;;;;;;;;4.25;4.00;;;;;10.32;72.26;99277.59;4977176;28;45622;-71
2022/11/21 12:35:38;;;;;;;;;5.75;5.00;;;;;10.16;72.62;99251.81;4977185;28;45247;-73
2022/11/21 12:38:19;;;;;;;;;5.75;5.75;;;;;10.24;73.15;99251.31;4878975;29;45545;-71
2022/11/21 12:40:47;;;;;;;;;4.00;4.00;;;;;10.20;73.02;99239.13;4878743;29;45220;-73
2022/11/21 12:43:23;;;;;;;;;6.50;6.00;;;;;10.16;73.19;99225.03;4933181;28;45398;-71
2022/11/21 12:46:08;;;;;;;;;6.50;3.75;;;;;10.12;73.62;99209.28;4976664;28;45451;-72
2022/11/21 12:55:20;;;;;;;;;7.00;4.25;;;;;10.17;74.76;99175.91;4976740;28;45448;-72
2022/11/21 12:58:23;;;;;;;;;7.50;5.00;;;;;10.18;74.32;99179.44;4969716;28;45404;-71
2022/11/21 13:01:08;;;;;;;;;5.25;5.25;;;;;10.12;74.14;99178.00;4970564;28;45366;-72
2022/11/21 13:03:50;;;;;;;;;3.75;3.50;;;;;10.07;73.75;99163.22;4969936;28;45434;-73
2022/11/21 13:06:23;;;;;;;;;4.00;3.00;;;;;9.98;73.85;99158.50;4957223;28;45963;-72
2022/11/21 13:08:52;;;;;;;;;3.50;3.50;;;;;9.87;74.06;99154.72;4964007;28;45358;-72
2022/11/21 13:11:58;;;;;;;;;7.50;4.25;;;;;9.87;74.57;99152.03;4967848;28;45322;-71
2022/11/21 13:14:35;;;;;;;;;4.00;2.50;;;;;9.84;75.08;99141.56;4977584;28;45428;-71
2022/11/21 13:17:22;;;;;;;;;3.00;3.00;;;;;9.83;74.98;99134.50;4964837;28;46728;-72
2022/11/21 13:20:12;;;;;;;;;5.25;5.25;;;;;9.80;74.78;99105.25;4975963;28;45414;-72
2022/11/21 13:22:37;;;;;;;;;4.75;4.50;;;;;9.74;75.42;99084.28;4955792;28;45423;-73
2022/11/21 13:25:08;;;;;;;;;3.00;3.00;;;;;9.77;75.91;99080.53;4976162;28;45300;-71
2022/11/21 13:27:41;;;;;;;;;5.25;3.00;;;;;9.78;76.23;99063.53;4958297;28;47560;-71
2022/11/21 13:30:07;;;;;;;;;5.25;4.00;;;;;9.76;76.06;99068.13;4975512;28;45441;-73
2022/11/21 13:32:41;;;;;;;;;2.25;2.25;;;;;9.76;76.21;99060.09;4950602;28;45447;-72
2022/11/21 13:35:18;;;;;;;;;3.00;3.00;;;;;9.74;75.81;99037.94;4937102;28;46193;-72
2022/11/21 13:38:02;;;;;;;;;3.00;3.00;;;;;9.73;76.87;99023.69;4937154;28;45534;-72
2022/11/21 13:40:30;;;;;;;;;5.25;5.25;;;;;9.73;76.03;99010.31;4937048;28;45446;-73
2022/11/21 13:43:08;;;;;;;;;5.00;3.00;;;;;9.73;76.18;99004.97;4945159;28;45449;-72
2022/11/21 13:45:44;;;;;;;;;5.00;4.00;;;;;9.71;76.55;98988.16;4940107;28;45450;-72
2022/11/21 13:48:32;;;;;;;;;4.25;2.75;;;;;9.71;76.15;98980.13;4937108;28;45886;-74
2022/11/21 13:51:43;;;;;;;;;3.75;2.50;;;;;9.73;76.75;98993.41;4937446;28;45443;-72
2022/11/21 13:54:20;;;;;;;;;4.25;3.00;;;;;9.72;76.61;99005.06;4936956;28;45433;-72
2022/11/21 13:57:10;;;;;;;;;6.25;3.50;;;;;9.72;76.97;98999.72;4936803;28;46070;-72
2022/11/21 14:00:00;;;;;;;;;8.25;4.25;;;;;9.69;77.28;98998.13;4936944;28;45427;-71
2022/11/21 14:02:50;;;;;;;;;3.50;2.00;;;;;9.62;76.78;98991.47;4947195;28;45438;-73
2022/11/21 14:05:31;;;;;;;;;2.50;2.25;;;;;9.61;77.41;98954.97;4940537;28;45452;-71
2022/11/21 14:08:31;;;;;;;;;4.00;2.75;;;;;9.62;77.32;98959.34;4942628;28;45523;-74
2022/11/21 14:10:57;;;;;;;;;6.75;4.50;;;;;9.51;77.29;98931.66;4946266;28;46077;-72
2022/11/21 14:13:22;;;;;;;;;3.50;3.00;;;;;9.47;77.17;98937.22;4938530;28;45416;-72
2022/11/21 14:16:06;;;;;;;;;2.75;2.00;;;;;9.44;77.40;98932.09;4942958;28;45330;-74
2022/11/21 14:18:32;;;;;;;;;6.25;3.75;;;;;9.38;78.32;98924.50;4936659;28;45513;-73
2022/11/21 14:21:00;;;;;;;;;4.00;2.25;;;;;9.41;78.40;98910.06;4936608;28;45657;-72
2022/11/21 14:23:29;;;;;;;;;5.00;3.00;;;;;9.40;78.80;98919.91;4919149;28;45837;-71
2022/11/21 14:26:00;;;;;;;;;2.00;0.50;;;;;9.44;78.45;98915.22;4937146;28;45411;-72
2022/11/21 14:28:28;;;;;;;;;3.00;3.00;;;;;9.31;78.83;98885.78;4936179;28;45488;-73
2022/11/21 14:31:11;;;;;;;;;2.00;2.00;;;;;9.38;78.84;98897.75;4951478;28;45431;-73
2022/11/21 14:33:41;;;;;;;;;3.00;3.00;;;;;9.29;79.53;98873.47;4973513;28;45480;-74
2022/11/21 14:36:16;;;;;;;;;4.00;3.00;;;;;9.25;79.48;98855.94;4973646;28;45452;-77
2022/11/21 14:38:45;;;;;;;;;3.00;3.00;;;;;9.15;79.43;98836.16;4957219;28;45392;-70
2022/11/21 14:41:26;;;;;;;;;2.00;2.00;;;;;9.23;79.81;98861.41;4963715;28;46279;-72
2022/11/21 14:44:00;;;;;;;;;2.50;2.00;;;;;9.17;79.70;98834.25;4975063;28;45388;-73
2022/11/21 14:46:45;;;;;;;;;4.50;3.00;;;;;9.03;80.22;98829.84;4976174;28;45219;-72
2022/11/21 14:49:17;;;;;;;;;3.00;3.00;;;;;9.09;80.98;98846.34;4975775;28;45499;-71
2022/11/21 14:51:50;;;;;;;;;3.25;1.25;;;;;9.10;80.49;98840.00;4976097;28;45369;-71
2022/11/21 14:54:19;;;;;;;;;3.25;3.25;;;;;9.08;80.50;98841.94;4975600;28;45375;-71
2022/11/21 14:57:02;;;;;;;;;3.00;3.00;;;;;9.07;80.22;98829.53;4974472;28;45814;-72
2022/11/21 14:59:39;;;;;;;;;5.25;4.25;;;;;9.04;80.55;98836.91;4974663;28;45561;-70
2022/11/21 15:02:18;;;;;;;;;3.25;2.00;;;;;8.98;80.91;98843.56;4965925;28;45857;-71
2022/11/21 15:04:46;;;;;;;;;5.50;4.50;;;;;8.90;81.14;98832.53;4975211;28;45357;-72
2022/11/21 15:07:26;;;;;;;;;6.75;4.00;;;;;9.01;81.79;98826.47;4975126;28;45412;-70
2022/11/21 15:09:51;;;;;;;;;6.50;5.00;;;;;8.95;81.67;98806.34;4975110;28;45247;-70
2022/11/21 15:12:35;;;;;;;;;5.50;2.25;;;;;9.03;80.68;98811.13;4950614;28;45561;-72
2022/11/21 15:15:14;;;;;;;;;4.00;4.00;;;;;9.01;80.96;98824.63;4970940;28;45504;-71
2022/11/21 15:17:39;;;;;;;;;4.00;4.00;;;;;8.89;81.53;98811.25;4955795;28;45307;-70
2022/11/21 15:20:18;;;;;;;;;7.50;2.75;;;;;8.92;82.52;98814.59;4954744;28;45599;-72
2022/11/21 15:22:45;;;;;;;;;3.00;3.00;;;;;8.86;82.13;98800.78;4954787;28;45535;-71
2022/11/21 15:25:18;;;;;;;;;2.25;2.00;;;;;8.94;82.49;98814.47;4955286;28;45453;-70
2022/11/21 15:27:48;;;;;;;;;6.00;2.00;;;;;8.90;82.13;98803.16;4954779;28;45677;-71
2022/11/21 15:30:13;;;;;;;;;3.00;3.00;;;;;8.94;82.75;98812.63;4945531;28;47037;-71
2022/11/21 15:32:57;;;;;;;;;3.00;3.00;;;;;8.98;82.74;98818.63;4943749;28;45338;-71
2022/11/21 15:35:41;;;;;;;;;4.00;2.00;;;;;8.98;83.00;98827.50;4935475;28;45491;-70
2022/11/21 15:38:25;;;;;;;;;3.00;3.00;;;;;8.97;82.87;98820.47;4942212;28;45163;-70
2022/11/21 15:41:00;;;;;;;;;1.50;1.25;;;;;8.96;82.98;98816.06;4951386;28;45370;-71
2022/11/21 15:43:39;;;;;;;;;3.00;3.00;;;;;8.92;83.11;98819.94;4935821;28;46480;-70
2022/11/21 15:46:19;;;;;;;;;3.50;3.00;;;;;8.87;83.12;98815.84;4937299;28;45367;-70
2022/11/21 15:48:50;;;;;;;;;3.75;3.75;;;;;8.89;83.59;98832.63;4955245;28;45418;-69
2022/11/21 15:51:18;;;;;;;;;3.00;2.25;;;;;8.89;83.92;98827.28;4955177;28;45469;-71
2022/11/21 15:53:43;;;;;;;;;2.50;2.50;;;;;8.90;83.58;98824.53;4951430;28;46245;-71
2022/11/21 15:56:12;;;;;;;;;5.75;3.00;;;;;8.98;84.07;98829.34;4945034;28;45733;-70
2022/11/21 15:58:37;;;;;;;;;3.75;2.50;;;;;8.96;83.77;98821.41;4950924;28;45547;-71
2022/11/21 16:01:03;;;;;;;;;4.00;4.00;;;;;8.92;83.62;98811.91;4929602;28;46342;-69
2022/11/21 16:03:28;;;;;;;;;4.50;4.50;;;;;8.90;83.94;98823.66;4954682;28;45267;-72
2022/11/21 16:05:53;;;;;;;;;4.25;2.75;;;;;8.70;84.62;98788.50;4954650;28;45429;-71
2022/11/21 16:08:19;;;;;;;;;4.25;4.25;;;;;8.93;84.10;98831.47;4954285;28;45539;-69
2022/11/21 16:10:44;;;;;;;;;9.00;5.25;;;;;8.92;84.70;98840.47;4937975;28;45481;-70
2022/11/21 16:13:11;;;;;;;;;5.75;3.50;;;;;8.96;84.99;98844.63;4939918;28;45326;-70
2022/11/21 16:15:36;;;;;;;;;3.00;3.00;;;;;8.99;84.61;98836.38;4941154;28;45377;-69
2022/11/21 16:18:01;;;;;;;;;4.00;4.00;;;;;8.67;84.53;98787.88;4935450;28;45340;-70
2022/11/21 16:20:27;;;;;;;;;4.75;4.75;;;;;9.04;85.01;98831.56;4935062;28;45551;-69
2022/11/21 16:22:53;;;;;;;;;3.00;3.00;;;;;9.09;84.50;98822.28;4941191;28;46052;-68
2022/11/21 16:25:19;;;;;;;;;3.50;3.50;;;;;9.10;84.59;98815.13;4946929;28;45410;-70
2022/11/21 16:27:44;;;;;;;;;1.00;1.00;;;;;9.16;84.40;98817.34;4936238;28;45368;-70
2022/11/21 16:30:11;;;;;;;;;4.25;3.00;;;;;9.16;84.55;98827.19;4936175;28;45558;-70
2022/11/21 16:32:36;;;;;;;;;6.75;3.00;;;;;9.16;84.50;98835.22;4974655;28;46226;-69
2022/11/21 16:35:02;;;;;;;;;2.75;2.75;;;;;9.08;84.28;98812.53;4973963;28;45304;-69
2022/11/21 16:37:32;;;;;;;;;3.00;3.00;;;;;9.19;84.85;98822.47;4973858;28;45315;-69
2022/11/21 16:39:58;;;;;;;;;7.50;3.75;;;;;9.19;84.49;98826.94;4974540;28;45507;-70
2022/11/21 16:42:24;;;;;;;;;3.00;3.00;;;;;9.26;84.10;98825.56;4976086;28;46485;-70
2022/11/21 16:44:49;;;;;;;;;4.00;2.75;;;;;9.30;84.13;98813.69;4977161;28;45441;-72
2022/11/21 16:47:14;;;;;;;;;4.00;3.00;;;;;9.30;83.85;98811.00;4976953;28;45377;-71
2022/11/21 16:49:45;;;;;;;;;2.00;2.00;;;;;9.31;83.96;98810.91;4976672;28;45321;-70
2022/11/21 16:52:12;;;;;;;;;3.75;3.75;;;;;9.39;83.91;98821.06;4957348;28;47344;-70
2022/11/21 16:54:37;;;;;;;;;2.25;2.25;;;;;9.32;83.35;98817.97;4975809;28;45567;-68
2022/11/21 16:57:03;;;;;;;;;2.50;2.00;;;;;9.36;83.85;98840.84;4976557;28;45765;-70
2022/11/21 16:59:29;;;;;;;;;6.75;3.00;;;;;9.34;83.89;98829.41;4977251;28;45341;-71
2022/11/21 17:01:55;;;;;;;;;2.00;2.00;;;;;9.33;83.89;98838.41;4975702;28;45506;-70
2022/11/21 17:04:20;;;;;;;;;2.00;2.00;;;;;9.36;83.07;98834.63;4976251;28;45381;-71
2022/11/21 17:06:47;;;;;;;;;8.50;3.25;;;;;9.40;83.16;98850.38;4976192;28;45357;-69
2022/11/21 17:09:15;;;;;;;;;4.75;4.00;;;;;9.44;83.30;98835.78;4975459;28;46341;-72
2022/11/21 17:11:41;;;;;;;;;5.00;2.00;;;;;9.47;82.82;98845.44;4976191;28;46507;-69
2022/11/21 17:14:07;;;;;;;;;3.75;2.75;;;;;9.45;83.14;98833.97;4956096;28;45334;-69
2022/11/21 17:16:33;;;;;;;;;4.00;3.00;;;;;9.44;82.97;98834.97;4971367;28;45596;-71
2022/11/21 17:19:01;;;;;;;;;4.50;4.50;;;;;9.46;82.72;98828.53;4977754;28;45509;-71
2022/11/21 17:21:27;;;;;;;;;7.50;4.00;;;;;9.49;82.57;98841.69;4977851;28;45279;-72
2022/11/21 17:23:53;;;;;;;;;4.75;3.00;;;;;9.44;82.59;98827.78;4956564;28;45543;-71
2022/11/21 17:26:22;;;;;;;;;3.25;3.25;;;;;9.46;82.41;98827.66;4973966;28;45590;-72
2022/11/21 17:28:58;;;;;;;;;3.50;3.50;;;;;9.56;82.87;98835.88;4976657;28;45445;-71
2022/11/21 17:31:24;;;;;;;;;5.00;2.00;;;;;9.48;82.37;98826.59;4976121;28;45438;-70
2022/11/21 17:33:50;;;;;;;;;7.00;2.50;;;;;9.59;82.40;98849.06;4974868;28;45429;-71
2022/11/21 17:36:22;;;;;;;;;1.00;1.00;;;;;9.65;82.72;98856.63;4976055;28;45366;-71
2022/11/21 17:38:47;;;;;;;;;3.00;3.00;;;;;9.57;82.28;98843.81;4968989;28;45360;-70
2022/11/21 17:41:17;;;;;;;;;4.75;4.75;;;;;9.62;81.94;98871.06;4975710;28;45464;-72
2022/11/21 17:43:43;;;;;;;;;7.00;3.25;;;;;9.55;81.25;98882.31;4974279;28;45361;-74
2022/11/21 17:46:18;;;;;;;;;3.50;2.00;;;;;9.38;80.33;98864.81;4976115;28;45330;-72
2022/11/21 17:48:45;;;;;;;;;2.75;2.25;;;;;9.53;81.08;98893.13;4967655;28;45481;-74
2022/11/21 17:51:20;;;;;;;;;4.00;4.00;;;;;9.56;79.68;98884.91;4976372;28;45544;-73
2022/11/21 17:53:47;;;;;;;;;2.75;2.75;;;;;9.56;78.77;98900.94;4975889;28;45298;-74
2022/11/21 17:56:16;;;;;;;;;4.00;3.00;;;;;9.55;78.69;98888.53;4960194;28;45688;-74
2022/11/21 17:58:42;;;;;;;;;8.00;3.00;;;;;9.51;78.47;98886.19;4960344;28;45368;-71
2022/11/21 18:01:12;;;;;;;;;3.00;3.00;;;;;9.47;77.25;98885.53;4977681;28;47424;-73
2022/11/21 18:03:38;;;;;;;;;3.50;2.75;;;;;9.56;78.06;98902.75;4956714;28;45364;-71